createdAt,value
2022-10-29T00:01:08.318Z,15.30
2022-10-29T00:03:36.095Z,15.30
2022-10-29T00:06:07.077Z,15.40
2022-10-29T00:08:35.447Z,15.30
2022-10-29T00:11:21.042Z,15.40
2022-10-29T00:13:48.679Z,15.40
2022-10-29T00:16:17.210Z,15.40
2022-10-29T00:18:44.306Z,15.40
2022-10-29T00:21:13.535Z,15.40
2022-10-29T00:23:40.341Z,15.40
2022-10-29T00:26:07.132Z,15.40
2022-10-29T00:28:34.133Z,15.40
2022-10-29T00:31:08.019Z,15.30
2022-10-29T00:33:34.784Z,15.30
2022-10-29T00:36:02.951Z,15.30
2022-10-29T00:38:30.881Z,15.30
2022-10-29T00:40:57.797Z,15.30
2022-10-29T00:43:25.356Z,15.30
2022-10-29T00:45:58.515Z,15.30
2022-10-29T00:48:27.415Z,15.30
2022-10-29T00:50:55.121Z,15.20
2022-10-29T00:53:24.398Z,15.20
2022-10-29T00:55:51.262Z,15.20
2022-10-29T00:58:18.683Z,15.20
2022-10-29T01:00:45.984Z,15.20
2022-10-29T01:03:12.799Z,15.10
2022-10-29T01:05:40.037Z,15.10
2022-10-29T01:08:06.850Z,15.10
2022-10-29T01:10:56.898Z,15.10
2022-10-29T01:13:27.015Z,15.10
2022-10-29T01:15:53.875Z,15.10
2022-10-29T01:18:35.245Z,15.10
2022-10-29T01:21:17.165Z,15.10
2022-10-29T01:24:02.963Z,15.10
2022-10-29T01:26:32.720Z,15.20
2022-10-29T01:29:22.899Z,15.20
2022-10-29T01:31:52.743Z,15.20
2022-10-29T01:34:25.221Z,15.20
2022-10-29T01:37:18.310Z,15.20
2022-10-29T01:39:51.673Z,15.10
2022-10-29T01:42:29.810Z,15.20
2022-10-29T01:45:00.863Z,15.10
2022-10-29T01:47:30.830Z,15.20
2022-10-29T01:50:00.147Z,15.20
2022-10-29T01:52:29.075Z,15.20
2022-10-29T01:54:55.804Z,15.20
2022-10-29T01:57:27.573Z,15.20
2022-10-29T01:59:56.400Z,15.20
2022-10-29T02:02:32.203Z,15.20
2022-10-29T02:05:08.510Z,15.10
2022-10-29T02:07:40.322Z,15.00
2022-10-29T02:10:13.200Z,15.10
2022-10-29T02:12:47.612Z,15.00
2022-10-29T02:18:07.806Z,15.00
2022-10-29T02:20:35.330Z,15.10
2022-10-29T02:23:02.146Z,15.20
2022-10-29T02:25:29.343Z,15.10
2022-10-29T02:27:59.160Z,15.10
2022-10-29T02:30:26.099Z,15.00
2022-10-29T02:32:53.081Z,15.10
2022-10-29T02:35:20.100Z,15.00
2022-10-29T02:37:47.102Z,15.00
2022-10-29T02:40:13.872Z,15.10
2022-10-29T02:42:40.643Z,15.10
2022-10-29T02:45:07.486Z,15.10
2022-10-29T02:47:34.323Z,15.10
2022-10-29T02:50:01.055Z,15.10
2022-10-29T02:52:27.914Z,15.00
2022-10-29T02:54:54.699Z,15.10
2022-10-29T02:57:21.434Z,15.00
2022-10-29T02:59:48.210Z,15.10
2022-10-29T03:02:15.057Z,15.00
2022-10-29T03:04:44.154Z,15.10
2022-10-29T03:07:10.873Z,15.10
2022-10-29T03:09:37.750Z,15.10
2022-10-29T03:12:04.583Z,15.10
2022-10-29T03:14:31.429Z,15.10
2022-10-29T03:16:58.200Z,15.10
2022-10-29T03:19:24.975Z,15.10
2022-10-29T03:21:51.734Z,15.10
2022-10-29T03:24:18.487Z,15.10
2022-10-29T03:26:45.179Z,15.10
2022-10-29T03:29:11.941Z,15.00
2022-10-29T03:31:38.777Z,15.10
2022-10-29T03:34:05.574Z,15.10
2022-10-29T03:36:32.362Z,15.00
2022-10-29T03:38:59.092Z,15.00
2022-10-29T03:41:25.772Z,15.00
2022-10-29T03:43:52.610Z,15.10
2022-10-29T03:46:19.578Z,15.00
2022-10-29T03:48:48.851Z,15.00
2022-10-29T03:51:15.575Z,15.00
2022-10-29T03:53:42.336Z,15.00
2022-10-29T03:56:09.374Z,15.00
2022-10-29T03:58:36.075Z,15.00
2022-10-29T04:01:04.708Z,15.00
2022-10-29T04:03:32.469Z,15.00
2022-10-29T04:06:00.055Z,14.90
2022-10-29T04:08:26.882Z,15.00
2022-10-29T04:10:53.713Z,15.00
2022-10-29T04:13:20.497Z,14.90
2022-10-29T04:15:47.454Z,14.90
2022-10-29T04:18:14.273Z,14.80
2022-10-29T04:21:18.631Z,14.80
2022-10-29T04:29:02.338Z,14.60
2022-10-29T04:31:29.109Z,14.60
2022-10-29T04:33:55.804Z,14.60
2022-10-29T04:36:22.570Z,14.60
2022-10-29T04:38:50.043Z,14.60
2022-10-29T04:41:16.789Z,14.60
2022-10-29T04:43:43.565Z,14.60
2022-10-29T04:46:10.755Z,14.50
2022-10-29T04:48:37.709Z,14.60
2022-10-29T04:51:04.568Z,14.60
2022-10-29T04:53:31.289Z,14.60
2022-10-29T04:56:01.770Z,14.60
2022-10-29T04:58:28.941Z,14.60
2022-10-29T05:01:01.669Z,14.60
2022-10-29T05:03:28.558Z,14.60
2022-10-29T05:05:55.302Z,14.70
2022-10-29T05:08:22.017Z,14.70
2022-10-29T05:10:48.893Z,14.60
2022-10-29T05:13:15.610Z,14.60
2022-10-29T05:15:42.419Z,14.60
2022-10-29T05:18:09.637Z,14.60
2022-10-29T05:20:36.376Z,14.60
2022-10-29T05:23:07.553Z,14.60
2022-10-29T05:25:35.499Z,14.50
2022-10-29T05:28:12.600Z,14.50
2022-10-29T05:30:40.146Z,14.50
2022-10-29T05:33:10.119Z,14.50
2022-10-29T05:35:37.023Z,14.50
2022-10-29T05:38:04.202Z,14.40
2022-10-29T05:40:31.172Z,14.40
2022-10-29T05:42:58.361Z,14.40
2022-10-29T05:45:25.455Z,14.40
2022-10-29T05:48:02.535Z,14.50
2022-10-29T05:50:30.018Z,14.40
2022-10-29T05:52:57.176Z,14.50
2022-10-29T05:55:24.539Z,14.50
2022-10-29T05:57:54.976Z,14.50
2022-10-29T06:00:21.770Z,14.40
2022-10-29T06:02:48.506Z,14.40
2022-10-29T06:05:15.411Z,14.30
2022-10-29T06:07:43.354Z,14.30
2022-10-29T06:10:10.328Z,14.40
2022-10-29T06:12:37.182Z,14.40
2022-10-29T06:15:04.197Z,14.40
2022-10-29T06:17:30.934Z,14.40
2022-10-29T06:19:57.750Z,14.40
2022-10-29T06:22:24.513Z,14.40
2022-10-29T06:24:51.274Z,14.40
2022-10-29T06:27:18.019Z,14.30
2022-10-29T06:29:44.777Z,14.30
2022-10-29T06:32:11.501Z,14.40
2022-10-29T06:34:38.235Z,14.40
2022-10-29T06:37:04.957Z,14.40
2022-10-29T06:39:31.733Z,14.40
2022-10-29T06:41:58.528Z,14.40
2022-10-29T06:44:29.839Z,14.40
2022-10-29T06:46:56.629Z,14.40
2022-10-29T06:49:23.525Z,14.40
2022-10-29T06:51:50.297Z,14.40
2022-10-29T06:54:17.090Z,14.40
2022-10-29T06:56:44.002Z,14.30
2022-10-29T06:59:10.870Z,14.40
2022-10-29T07:01:38.027Z,14.40
2022-10-29T07:04:05.030Z,14.40
2022-10-29T07:06:32.375Z,14.40
2022-10-29T07:08:59.190Z,14.40
2022-10-29T07:11:25.900Z,14.40
2022-10-29T07:13:52.690Z,14.40
2022-10-29T07:16:19.341Z,14.40
2022-10-29T07:18:46.251Z,14.40
2022-10-29T07:21:13.894Z,14.40
2022-10-29T07:23:40.723Z,14.50
2022-10-29T07:26:07.490Z,14.50
2022-10-29T07:28:34.213Z,14.50
2022-10-29T07:31:01.332Z,14.50
2022-10-29T07:33:29.189Z,14.50
2022-10-29T07:35:56.698Z,14.50
2022-10-29T07:38:23.713Z,14.50
2022-10-29T07:40:51.195Z,14.50
2022-10-29T07:43:18.591Z,14.50
2022-10-29T07:45:46.158Z,14.50
2022-10-29T07:48:12.995Z,14.60
2022-10-29T07:50:39.712Z,14.60
2022-10-29T07:53:07.293Z,14.60
2022-10-29T07:55:34.206Z,14.60
2022-10-29T07:58:02.482Z,14.60
2022-10-29T08:00:33.803Z,14.70
2022-10-29T08:03:00.641Z,14.60
2022-10-29T08:05:27.786Z,14.70
2022-10-29T08:07:55.623Z,14.70
2022-10-29T08:10:23.662Z,14.70
2022-10-29T08:12:54.946Z,14.70
2022-10-29T08:15:22.683Z,14.70
2022-10-29T08:17:50.034Z,14.80
2022-10-29T08:20:17.093Z,14.80
2022-10-29T08:22:44.095Z,14.80
2022-10-29T08:25:11.775Z,14.80
2022-10-29T08:27:38.489Z,14.80
2022-10-29T08:30:06.093Z,14.80
2022-10-29T08:32:32.816Z,14.90
2022-10-29T08:34:59.647Z,14.80
2022-10-29T08:37:26.640Z,14.90
2022-10-29T08:39:53.531Z,15.00
2022-10-29T08:42:39.090Z,15.00
2022-10-29T08:45:05.892Z,15.00
2022-10-29T08:47:38.461Z,15.10
2022-10-29T08:50:11.066Z,15.10
2022-10-29T08:52:48.196Z,15.10
2022-10-29T08:55:30.078Z,15.20
2022-10-29T08:57:58.406Z,15.20
2022-10-29T09:00:31.153Z,15.20
2022-10-29T09:02:59.165Z,15.20
2022-10-29T09:05:38.883Z,15.20
2022-10-29T09:08:28.569Z,15.30
2022-10-29T09:10:56.623Z,15.30
2022-10-29T09:13:38.794Z,15.30
2022-10-29T09:16:14.809Z,15.40
2022-10-29T09:19:11.124Z,15.40
2022-10-29T09:21:41.071Z,15.40
2022-10-29T09:24:35.252Z,15.40
2022-10-29T09:27:22.267Z,15.40
2022-10-29T09:29:48.982Z,15.50
2022-10-29T09:32:40.245Z,15.50
2022-10-29T09:35:27.355Z,15.50
2022-10-29T09:37:54.610Z,15.60
2022-10-29T09:40:29.668Z,15.60
2022-10-29T09:42:58.255Z,15.70
2022-10-29T09:45:30.243Z,15.70
2022-10-29T09:48:07.065Z,15.70
2022-10-29T09:50:52.743Z,15.70
2022-10-29T09:53:19.606Z,15.80
2022-10-29T09:55:53.594Z,15.80
2022-10-29T09:58:23.044Z,15.90
2022-10-29T10:00:50.736Z,15.90
2022-10-29T10:03:27.216Z,16.00
2022-10-29T10:06:00.244Z,16.10
2022-10-29T10:08:27.586Z,16.10
2022-10-29T10:10:54.419Z,16.60
2022-10-29T10:13:29.108Z,16.30
2022-10-29T10:15:59.888Z,16.30
2022-10-29T10:18:39.849Z,16.40
2022-10-29T10:21:11.070Z,16.40
2022-10-29T10:23:45.922Z,16.50
2022-10-29T10:26:28.027Z,16.70
2022-10-29T10:29:05.302Z,16.70
2022-10-29T10:31:32.044Z,16.80
2022-10-29T10:33:59.149Z,16.90
2022-10-29T10:36:29.103Z,16.90
2022-10-29T10:38:58.289Z,16.90
2022-10-29T10:41:29.192Z,16.90
2022-10-29T10:44:00.552Z,17.00
2022-10-29T10:46:54.474Z,17.00
2022-10-29T10:49:28.538Z,17.10
2022-10-29T10:51:56.513Z,17.10
2022-10-29T10:54:41.944Z,17.20
2022-10-29T10:57:12.000Z,17.20
2022-10-29T10:59:44.751Z,17.30
2022-10-29T11:02:37.907Z,17.30
2022-10-29T11:05:10.857Z,17.40
2022-10-29T11:07:39.208Z,17.40
2022-10-29T11:10:07.083Z,17.60
2022-10-29T11:12:40.266Z,17.70
2022-10-29T11:15:12.214Z,17.80
2022-10-29T11:17:47.768Z,17.90
2022-10-29T11:20:22.808Z,17.60
2022-10-29T11:22:56.036Z,18.20
2022-10-29T11:25:37.142Z,18.20
2022-10-29T11:28:11.953Z,18.30
2022-10-29T11:30:41.373Z,18.40
2022-10-29T11:35:49.447Z,18.70
2022-10-29T11:38:19.037Z,18.80
2022-10-29T11:41:05.176Z,18.90
2022-10-29T11:43:32.870Z,19.00
2022-10-29T11:46:06.600Z,19.10
2022-10-29T11:48:41.055Z,19.20
2022-10-29T11:51:17.190Z,19.40
2022-10-29T11:53:44.476Z,19.50
2022-10-29T11:56:11.460Z,19.60
2022-10-29T11:58:47.075Z,19.70
2022-10-29T12:01:29.050Z,19.80
2022-10-29T12:04:21.265Z,20.00
2022-10-29T12:07:10.056Z,19.60
2022-10-29T12:09:42.905Z,20.20
2022-10-29T12:12:20.842Z,20.40
2022-10-29T12:15:01.378Z,20.50
2022-10-29T12:17:43.775Z,20.60
2022-10-29T12:20:15.732Z,20.70
2022-10-29T12:22:58.988Z,20.80
2022-10-29T12:25:29.301Z,21.00
2022-10-29T12:28:05.563Z,21.00
2022-10-29T12:30:45.372Z,21.10
2022-10-29T12:33:21.335Z,21.20
2022-10-29T12:35:55.279Z,21.30
2022-10-29T12:38:32.973Z,21.50
2022-10-29T12:41:02.409Z,21.60
2022-10-29T12:43:30.440Z,21.70
2022-10-29T12:46:19.600Z,21.80
2022-10-29T12:48:50.281Z,22.00
2022-10-29T12:51:35.580Z,22.10
2022-10-29T12:54:41.173Z,22.30
2022-10-29T12:57:13.910Z,22.40
2022-10-29T12:59:41.554Z,22.50
2022-10-29T13:02:19.028Z,22.70
2022-10-29T13:05:04.772Z,22.80
2022-10-29T13:07:31.963Z,22.90
2022-10-29T13:10:17.716Z,23.00
2022-10-29T13:13:01.294Z,23.20
2022-10-29T13:15:30.512Z,23.20
2022-10-29T13:17:59.982Z,22.90
2022-10-29T13:20:33.154Z,23.20
2022-10-29T13:23:01.238Z,23.50
2022-10-29T13:25:42.350Z,23.60
2022-10-29T13:28:09.160Z,23.70
2022-10-29T13:30:37.428Z,23.80
2022-10-29T13:33:23.495Z,23.90
2022-10-29T13:35:54.179Z,23.90
2022-10-29T13:38:46.957Z,24.00
2022-10-29T13:41:28.022Z,24.00
2022-10-29T13:43:58.327Z,24.00
2022-10-29T13:46:46.166Z,24.10
2022-10-29T13:49:15.532Z,24.20
2022-10-29T13:51:50.034Z,24.10
2022-10-29T13:54:19.603Z,24.20
2022-10-29T13:56:53.014Z,24.20
2022-10-29T13:59:22.497Z,24.20
2022-10-29T14:01:55.990Z,24.30
2022-10-29T14:04:25.735Z,24.30
2022-10-29T14:06:54.637Z,24.40
2022-10-29T14:09:26.500Z,24.40
2022-10-29T14:11:57.883Z,24.40
2022-10-29T14:14:27.171Z,24.50
2022-10-29T14:17:08.915Z,24.60
2022-10-29T14:19:35.711Z,24.60
2022-10-29T14:22:02.564Z,24.60
2022-10-29T14:24:36.913Z,24.60
2022-10-29T14:27:07.854Z,24.60
2022-10-29T14:29:34.696Z,24.70
2022-10-29T14:32:05.629Z,24.70
2022-10-29T14:34:32.583Z,24.70
2022-10-29T14:37:03.492Z,24.60
2022-10-29T14:39:48.410Z,24.60
2022-10-29T14:42:37.113Z,24.60
2022-10-29T14:45:06.048Z,24.60
2022-10-29T14:47:36.615Z,24.50
2022-10-29T14:50:06.057Z,24.50
2022-10-29T14:52:35.151Z,24.50
2022-10-29T14:55:06.291Z,24.40
2022-10-29T14:57:34.650Z,24.40
2022-10-29T15:00:02.825Z,24.30
2022-10-29T15:02:39.022Z,24.20
2022-10-29T15:05:29.882Z,24.10
2022-10-29T15:08:12.935Z,24.00
2022-10-29T15:10:50.100Z,23.80
2022-10-29T15:13:24.747Z,23.70
2022-10-29T15:15:53.300Z,23.60
2022-10-29T15:18:21.555Z,23.40
2022-10-29T15:20:48.363Z,23.30
2022-10-29T15:23:18.203Z,23.10
2022-10-29T15:25:45.757Z,23.00
2022-10-29T15:28:19.455Z,22.90
2022-10-29T15:30:46.273Z,22.80
2022-10-29T15:33:17.994Z,22.60
2022-10-29T15:35:53.448Z,22.50
2022-10-29T15:38:46.951Z,22.40
2022-10-29T15:41:19.235Z,22.30
2022-10-29T15:43:50.299Z,22.10
2022-10-29T15:46:23.447Z,22.00
2022-10-29T15:48:50.234Z,22.10
2022-10-29T15:51:17.486Z,21.70
2022-10-29T15:53:44.436Z,21.60
2022-10-29T15:56:12.407Z,21.50
2022-10-29T15:58:39.570Z,21.30
2022-10-29T16:01:06.674Z,21.20
2022-10-29T16:03:38.381Z,21.10
2022-10-29T16:06:07.045Z,21.00
2022-10-29T16:08:36.475Z,20.90
2022-10-29T16:11:05.634Z,20.80
2022-10-29T16:13:32.672Z,20.50
2022-10-29T16:16:00.495Z,20.60
2022-10-29T16:18:27.401Z,20.50
2022-10-29T16:20:57.396Z,20.50
2022-10-29T16:23:24.183Z,20.40
2022-10-29T16:25:50.919Z,20.40
2022-10-29T16:28:17.697Z,20.30
2022-10-29T16:30:49.070Z,20.20
2022-10-29T16:33:16.480Z,20.10
2022-10-29T16:35:43.195Z,20.10
2022-10-29T16:38:11.121Z,20.10
2022-10-29T16:40:38.349Z,20.00
2022-10-29T16:43:05.424Z,19.90
2022-10-29T16:45:32.212Z,19.90
2022-10-29T16:47:59.600Z,19.80
2022-10-29T16:50:28.020Z,19.70
2022-10-29T16:52:58.527Z,19.70
2022-10-29T16:55:26.064Z,19.70
2022-10-29T16:57:53.026Z,19.60
2022-10-29T17:00:19.967Z,19.60
2022-10-29T17:02:46.961Z,19.50
2022-10-29T17:05:14.355Z,19.50
2022-10-29T17:07:41.325Z,19.40
2022-10-29T17:10:08.681Z,19.40
2022-10-29T17:12:36.080Z,19.30
2022-10-29T17:15:03.775Z,19.30
2022-10-29T17:17:30.884Z,19.20
2022-10-29T17:19:58.104Z,19.00
2022-10-29T17:22:24.898Z,19.10
2022-10-29T17:24:51.839Z,19.10
2022-10-29T17:27:18.721Z,19.00
2022-10-29T17:29:45.581Z,19.00
2022-10-29T17:32:12.687Z,19.00
2022-10-29T17:34:39.644Z,18.90
2022-10-29T17:37:06.674Z,18.90
2022-10-29T17:39:33.573Z,18.90
2022-10-29T17:42:02.806Z,18.80
2022-10-29T17:44:33.965Z,18.80
2022-10-29T17:47:00.815Z,18.70
2022-10-29T17:49:27.581Z,18.70
2022-10-29T17:51:54.335Z,18.70
2022-10-29T17:54:21.409Z,18.70
2022-10-29T17:56:49.065Z,18.70
2022-10-29T17:59:15.902Z,18.60
2022-10-29T18:01:43.697Z,18.50
2022-10-29T18:04:10.934Z,18.50
2022-10-29T18:06:38.295Z,18.50
2022-10-29T18:09:05.170Z,18.50
2022-10-29T18:11:32.410Z,18.40
2022-10-29T18:14:01.725Z,18.40
2022-10-29T18:16:29.456Z,18.50
2022-10-29T18:19:02.253Z,18.40
2022-10-29T18:21:30.281Z,18.30
2022-10-29T18:23:57.085Z,18.30
2022-10-29T18:26:24.040Z,18.20
2022-10-29T18:28:51.228Z,18.30
2022-10-29T18:31:18.434Z,18.20
2022-10-29T18:33:45.207Z,18.20
2022-10-29T18:36:12.282Z,18.20
2022-10-29T18:38:39.797Z,18.20
2022-10-29T18:41:06.733Z,18.10
2022-10-29T18:43:33.744Z,18.10
2022-10-29T18:46:04.721Z,18.00
2022-10-29T18:48:32.130Z,18.10
2022-10-29T18:51:03.956Z,18.10
2022-10-29T18:53:31.834Z,17.90
2022-10-29T18:55:58.731Z,17.90
2022-10-29T18:58:25.723Z,17.90
2022-10-29T19:00:52.803Z,17.90
2022-10-29T19:03:19.843Z,17.80
2022-10-29T19:05:46.737Z,17.80
2022-10-29T19:08:13.757Z,17.80
2022-10-29T19:10:41.354Z,17.70
2022-10-29T19:13:08.855Z,17.70
2022-10-29T19:15:36.902Z,17.70
2022-10-29T19:18:04.414Z,17.70
2022-10-29T19:20:33.353Z,17.70
2022-10-29T19:23:00.420Z,17.70
2022-10-29T19:25:28.197Z,17.60
2022-10-29T19:27:55.131Z,17.60
2022-10-29T19:30:22.010Z,17.60
2022-10-29T19:32:48.843Z,17.60
2022-10-29T19:35:15.843Z,17.50
2022-10-29T19:37:45.430Z,17.50
2022-10-29T19:40:12.567Z,17.50
2022-10-29T19:42:39.790Z,17.50
2022-10-29T19:45:09.226Z,17.50
2022-10-29T19:47:40.778Z,17.40
2022-10-29T19:50:08.760Z,17.00
2022-10-29T19:52:35.712Z,17.40
2022-10-29T19:55:25.830Z,17.40
2022-10-29T19:57:55.677Z,17.40
2022-10-29T20:00:26.175Z,17.40
2022-10-29T20:02:58.391Z,16.90
2022-10-29T20:05:25.769Z,17.40
2022-10-29T20:08:03.196Z,17.30
2022-10-29T20:10:36.398Z,17.20
2022-10-29T20:13:03.559Z,17.30
2022-10-29T20:16:05.830Z,17.20
2022-10-29T20:18:36.268Z,17.20
2022-10-29T20:21:03.231Z,17.10
2022-10-29T20:23:30.082Z,17.10
2022-10-29T20:25:56.904Z,17.00
2022-10-29T20:28:23.737Z,17.00
2022-10-29T20:30:50.580Z,17.00
2022-10-29T20:33:17.375Z,16.90
2022-10-29T20:35:44.100Z,16.90
2022-10-29T20:38:10.921Z,16.90
2022-10-29T20:40:37.653Z,16.90
2022-10-29T20:43:04.574Z,16.80
2022-10-29T20:45:31.326Z,16.80
2022-10-29T20:48:01.365Z,16.80
2022-10-29T20:50:28.282Z,16.80
2022-10-29T20:52:55.094Z,16.80
2022-10-29T20:55:21.927Z,16.80
2022-10-29T20:57:48.629Z,16.70
2022-10-29T21:00:15.461Z,16.70
2022-10-29T21:02:42.349Z,16.70
2022-10-29T21:05:09.215Z,16.80
2022-10-29T21:07:36.073Z,16.70
2022-10-29T21:10:02.960Z,16.70
2022-10-29T21:12:29.809Z,16.70
2022-10-29T21:14:56.544Z,16.60
2022-10-29T21:17:23.510Z,16.60
2022-10-29T21:19:50.266Z,16.60
2022-10-29T21:22:19.181Z,16.60
2022-10-29T21:24:46.294Z,16.50
2022-10-29T21:27:13.240Z,16.50
2022-10-29T21:29:41.327Z,16.50
2022-10-29T21:32:21.227Z,16.40
2022-10-29T21:34:48.005Z,16.40
2022-10-29T21:37:14.721Z,16.40
2022-10-29T21:39:44.977Z,16.40
2022-10-29T21:42:14.802Z,16.40
2022-10-29T21:44:41.582Z,16.30
2022-10-29T21:47:10.595Z,16.30
2022-10-29T21:49:37.426Z,16.30
2022-10-29T21:52:04.229Z,16.30
2022-10-29T21:54:30.957Z,16.30
2022-10-29T21:56:57.781Z,16.30
2022-10-29T21:59:24.534Z,16.20
2022-10-29T22:01:51.435Z,16.30
2022-10-29T22:04:19.158Z,16.30
2022-10-29T22:06:45.996Z,16.30
2022-10-29T22:09:12.848Z,16.30
2022-10-29T22:11:39.582Z,16.20
2022-10-29T22:14:07.034Z,16.20
2022-10-29T22:16:33.948Z,16.20
2022-10-29T22:19:01.979Z,16.10
2022-10-29T22:21:28.944Z,16.10
2022-10-29T22:23:56.838Z,16.10
2022-10-29T22:26:27.954Z,16.00
2022-10-29T22:28:55.079Z,15.90
2022-10-29T22:31:22.608Z,16.00
2022-10-29T22:33:49.701Z,16.00
2022-10-29T22:36:21.775Z,15.90
2022-10-29T22:38:55.620Z,15.90
2022-10-29T22:41:26.434Z,15.90
2022-10-29T22:43:53.489Z,15.90
2022-10-29T22:46:20.808Z,15.90
2022-10-29T22:48:47.864Z,15.90
2022-10-29T22:51:14.749Z,15.90
2022-10-29T22:53:41.564Z,15.90
2022-10-29T22:56:10.691Z,15.80
2022-10-29T22:58:38.102Z,15.80
2022-10-29T23:01:06.662Z,15.80
2022-10-29T23:03:40.226Z,15.80
2022-10-29T23:06:08.604Z,15.80
2022-10-29T23:08:38.095Z,15.70
2022-10-29T23:11:21.130Z,15.70
2022-10-29T23:13:55.088Z,15.70
2022-10-29T23:16:25.166Z,15.20
2022-10-29T23:18:53.967Z,15.70
2022-10-29T23:21:26.845Z,15.70
2022-10-29T23:23:54.047Z,15.70
2022-10-29T23:26:32.243Z,15.60
2022-10-29T23:29:15.991Z,15.60
2022-10-29T23:31:42.773Z,15.60
2022-10-29T23:34:17.153Z,15.60
2022-10-29T23:36:44.012Z,15.60
2022-10-29T23:39:11.223Z,15.50
2022-10-29T23:41:37.979Z,15.50
2022-10-29T23:44:07.085Z,15.40
2022-10-29T23:46:33.895Z,15.40
2022-10-29T23:49:00.643Z,15.40
2022-10-29T23:51:31.053Z,15.40
2022-10-29T23:53:57.958Z,15.40
2022-10-29T23:56:25.100Z,15.40
2022-10-29T23:58:51.926Z,15.30
